createdAt,value
2023-01-13T00:00:17.285Z,2.5
2023-01-13T00:05:17.240Z,2.5
2023-01-13T00:10:17.224Z,2.43
2023-01-13T00:15:17.244Z,2.43
2023-01-13T00:20:17.550Z,2.31
2023-01-13T00:25:17.228Z,2.25
2023-01-13T00:30:17.211Z,2.43
2023-01-13T00:35:17.343Z,2.18
2023-01-13T00:40:17.204Z,2
2023-01-13T00:45:17.211Z,2.12
2023-01-13T00:50:17.223Z,2.06
2023-01-13T00:55:17.214Z,2.06
2023-01-13T01:00:17.216Z,2.12
2023-01-13T01:05:17.222Z,2.12
2023-01-13T01:10:17.208Z,1.87
2023-01-13T01:15:17.209Z,1.81
2023-01-13T01:20:17.192Z,1.68
2023-01-13T01:25:17.208Z,1.62
2023-01-13T01:30:17.224Z,1.75
2023-01-13T01:35:17.203Z,1.75
2023-01-13T01:40:17.222Z,1.87
2023-01-13T01:45:17.196Z,2.06
2023-01-13T01:50:17.204Z,1.93
2023-01-13T01:55:17.170Z,1.75
2023-01-13T02:00:17.272Z,1.87
2023-01-13T02:05:17.175Z,1.62
2023-01-13T02:10:17.220Z,1.68
2023-01-13T02:15:17.183Z,1.5
2023-01-13T02:20:17.155Z,1.62
2023-01-13T03:10:17.080Z,2.68
2023-01-13T03:15:17.093Z,2.62
2023-01-13T03:20:17.190Z,2.81
2023-01-13T03:25:17.079Z,2.93
2023-01-13T03:30:17.081Z,3.06
2023-01-13T03:35:17.088Z,3.06
2023-01-13T03:40:17.082Z,3.06
2023-01-13T03:45:17.083Z,2.93
2023-01-13T03:50:17.064Z,3.12
2023-01-13T03:55:17.075Z,3.18
2023-01-13T04:00:17.075Z,3.12
2023-01-13T04:05:17.079Z,3.37
2023-01-13T04:10:17.046Z,3.43
2023-01-13T04:15:17.038Z,3.37
2023-01-13T04:20:17.063Z,3.31
2023-01-13T04:25:17.051Z,3.62
2023-01-13T04:30:17.038Z,3.62
2023-01-13T04:35:17.030Z,3.68
2023-01-13T04:40:17.055Z,3.62
2023-01-13T04:45:17.108Z,3.43
2023-01-13T04:50:17.013Z,3.62
2023-01-13T04:55:17.027Z,3.75
2023-01-13T05:00:17.033Z,3.68
2023-01-13T05:05:17.021Z,3.81
2023-01-13T05:10:17.009Z,3.62
2023-01-13T05:15:17.016Z,3.5
2023-01-13T05:20:17.024Z,3.56
2023-01-13T05:25:17.011Z,3.81
2023-01-13T05:30:17.023Z,3.75
2023-01-13T05:35:17.008Z,3.62
2023-01-13T05:40:17.026Z,3.87
2023-01-13T05:45:16.984Z,3.93
2023-01-13T05:50:16.999Z,4
2023-01-13T05:55:16.994Z,3.81
2023-01-13T06:00:17.016Z,4.18
2023-01-13T06:05:16.982Z,3.75
2023-01-13T06:10:16.977Z,3.93
2023-01-13T06:15:17.017Z,3.56
2023-01-13T06:20:17.047Z,3.62
2023-01-13T06:25:16.965Z,3.75
2023-01-13T06:30:16.989Z,3.68
2023-01-13T06:35:17.019Z,3.81
2023-01-13T06:40:16.970Z,3.5
2023-01-13T06:45:16.963Z,3.5
2023-01-13T06:50:16.972Z,3.43
2023-01-13T06:55:16.967Z,3.25
2023-01-13T07:00:16.979Z,3.43
2023-01-13T07:05:16.944Z,3.62
2023-01-13T07:10:16.940Z,3.5
2023-01-13T07:15:16.980Z,3.87
2023-01-13T07:20:16.928Z,3.5
2023-01-13T07:25:16.946Z,3.81
2023-01-13T07:30:16.947Z,3.87
2023-01-13T07:35:16.907Z,4.18
2023-01-13T07:40:16.926Z,4.25
2023-01-13T07:45:16.940Z,4.18
2023-01-13T07:50:16.916Z,4.5
2023-01-13T07:55:16.894Z,4.25
2023-01-13T08:00:16.929Z,4.37
2023-01-13T08:05:16.915Z,4.5
2023-01-13T08:10:17.012Z,4.87
2023-01-13T08:15:16.929Z,4.81
2023-01-13T08:20:16.883Z,4.81
2023-01-13T08:25:16.950Z,4.87
2023-01-13T08:30:16.892Z,5
2023-01-13T08:35:16.892Z,5.25
2023-01-13T08:40:16.881Z,5.62
2023-01-13T08:45:16.906Z,5.43
2023-01-13T08:50:16.865Z,5.37
2023-01-13T08:55:16.869Z,5.5
2023-01-13T09:00:17.019Z,5.43
2023-01-13T09:05:17.795Z,5.43
2023-01-13T09:10:16.857Z,5.43
2023-01-13T09:15:16.838Z,5.5
2023-01-13T09:20:16.863Z,5.5
2023-01-13T09:25:16.853Z,5.31
2023-01-13T09:30:16.955Z,5.43
2023-01-13T09:35:16.842Z,5.75
2023-01-13T09:40:16.853Z,5.5
2023-01-13T09:45:16.822Z,5.75
2023-01-13T09:50:16.809Z,5.87
2023-01-13T09:55:16.817Z,6.06
2023-01-13T10:00:16.833Z,6.25
2023-01-13T10:05:16.831Z,6.31
2023-01-13T10:10:16.831Z,6.62
2023-01-13T10:20:16.802Z,6.93
2023-01-13T10:25:16.796Z,6.87
2023-01-13T10:30:16.769Z,7.18
2023-01-13T10:35:16.781Z,7.12
2023-01-13T10:40:16.806Z,7.18
2023-01-13T10:45:16.773Z,7.43
2023-01-13T10:50:16.787Z,7.37
2023-01-13T10:55:16.768Z,7.56
2023-01-13T11:00:16.757Z,7.5
2023-01-13T11:05:16.769Z,7.5
2023-01-13T11:10:16.886Z,7.87
2023-01-13T11:15:16.769Z,7.81
2023-01-13T11:20:16.826Z,8.06
2023-01-13T11:25:16.739Z,8.5
2023-01-13T11:30:16.760Z,8.62
2023-01-13T11:35:16.734Z,8.93
2023-01-13T11:40:16.721Z,9.37
2023-01-13T11:45:16.693Z,9.12
2023-01-13T11:50:16.710Z,9.25
2023-01-13T11:55:16.745Z,9.31
2023-01-13T12:00:16.712Z,8.87
2023-01-13T12:05:16.749Z,8.87
2023-01-13T12:10:16.684Z,8.87
2023-01-13T12:15:16.707Z,8.75
2023-01-13T12:20:16.769Z,9.5
2023-01-13T12:25:16.663Z,10.12
2023-01-13T12:30:16.662Z,10.56
2023-01-13T12:35:16.670Z,10.68
2023-01-13T12:50:16.666Z,11
2023-01-13T12:55:16.667Z,10.81
2023-01-13T13:00:16.684Z,10.93
2023-01-13T13:05:16.664Z,10.5
2023-01-13T13:10:16.660Z,10.68
2023-01-13T13:15:16.658Z,10.62
2023-01-13T13:20:16.616Z,10.5
2023-01-13T13:25:16.638Z,10.56
2023-01-13T13:30:16.604Z,10.25
2023-01-13T13:35:16.601Z,9.75
2023-01-13T13:40:16.593Z,9.62
2023-01-13T13:45:16.566Z,9.75
2023-01-13T13:50:16.591Z,9.75
2023-01-13T13:55:16.588Z,9.75
2023-01-13T14:00:16.561Z,9.56
2023-01-13T14:05:16.581Z,9.56
2023-01-13T14:10:16.579Z,9.43
2023-01-13T14:15:16.512Z,9.25
2023-01-13T14:20:16.509Z,9.5
2023-01-13T14:25:16.495Z,9.31
2023-01-13T14:30:16.470Z,9.75
2023-01-13T14:35:16.490Z,9.43
2023-01-13T14:40:16.471Z,4.43
2023-01-13T14:45:16.456Z,4
2023-01-13T14:50:16.436Z,3.93
2023-01-13T14:55:16.443Z,3.75
2023-01-13T15:00:16.446Z,3.68
2023-01-13T15:05:16.423Z,3.56
2023-01-13T15:10:16.435Z,3.5
2023-01-13T15:20:16.410Z,3.75
2023-01-13T15:25:16.420Z,3.87
2023-01-13T15:30:16.410Z,3.81
2023-01-13T15:35:16.398Z,3.93
2023-01-13T15:40:16.400Z,3.93
2023-01-13T15:45:16.407Z,4
2023-01-13T15:50:16.397Z,4.06
2023-01-13T15:55:16.388Z,4.06
2023-01-13T16:00:16.396Z,4
2023-01-13T16:05:16.391Z,3.93
2023-01-13T16:10:16.402Z,3.87
2023-01-13T16:15:16.385Z,3.68
2023-01-13T16:20:16.387Z,3.43
2023-01-13T16:25:16.390Z,3.43
2023-01-13T16:30:16.405Z,3.31
2023-01-13T16:35:16.413Z,3.25
2023-01-13T16:40:16.422Z,3.25
2023-01-13T16:45:16.427Z,3.06
2023-01-13T16:50:16.433Z,3.06
2023-01-13T16:55:16.430Z,3.25
2023-01-13T17:00:16.436Z,3.25
2023-01-13T17:15:16.410Z,3.81
2023-01-13T17:20:16.447Z,4.12
2023-01-13T17:25:16.423Z,4.31
2023-01-13T17:50:16.409Z,4.68
2023-01-13T17:55:16.386Z,4.43
2023-01-13T18:00:16.419Z,4.37
2023-01-13T18:05:16.399Z,4.25
2023-01-13T18:10:16.416Z,4.37
2023-01-13T18:15:16.378Z,4.06
2023-01-13T18:20:16.373Z,3.93
2023-01-13T18:25:16.390Z,3.87
2023-01-13T18:30:16.385Z,4
2023-01-13T18:35:16.359Z,4.06
2023-01-13T18:40:16.341Z,3.93
2023-01-13T18:45:16.370Z,4
2023-01-13T18:50:16.369Z,3.87
2023-01-13T18:55:16.340Z,3.81
2023-01-13T19:00:16.339Z,3.87
2023-01-13T19:05:16.346Z,3.93
2023-01-13T19:10:16.340Z,4.25
2023-01-13T19:15:16.353Z,4.43
2023-01-13T19:20:16.342Z,4.68
2023-01-13T19:25:16.331Z,4.81
2023-01-13T19:30:16.353Z,4.93
2023-01-13T19:35:16.339Z,5.18
2023-01-13T19:40:16.323Z,5.12
2023-01-13T19:45:16.337Z,5.18
2023-01-13T19:50:16.320Z,5.25
2023-01-13T19:55:16.331Z,5.12
2023-01-13T20:00:16.332Z,5
2023-01-13T20:05:16.308Z,4.68
2023-01-13T20:10:16.303Z,4.5
2023-01-13T20:15:16.365Z,4.43
2023-01-13T20:20:16.301Z,4.31
2023-01-13T20:25:16.321Z,4.5
2023-01-13T20:30:16.295Z,4.68
2023-01-13T20:35:16.298Z,4.68
2023-01-13T20:40:16.308Z,4.68
2023-01-13T20:45:16.298Z,4.68
2023-01-13T20:50:16.280Z,4.56
2023-01-13T20:55:16.279Z,4.5
2023-01-13T21:00:16.250Z,4.37
2023-01-13T21:05:16.267Z,4.43
2023-01-13T21:10:16.254Z,4.18
2023-01-13T21:15:16.273Z,4.25
2023-01-13T21:20:16.288Z,4.18
2023-01-13T21:25:16.267Z,4.18
2023-01-13T21:30:16.272Z,4.06
2023-01-13T21:35:16.248Z,4.12
2023-01-13T21:40:16.279Z,4
2023-01-13T21:45:16.242Z,3.93
2023-01-13T21:50:16.242Z,3.93
2023-01-13T21:55:16.231Z,3.93
2023-01-13T22:00:16.235Z,3.87
2023-01-13T22:05:16.227Z,3.93
2023-01-13T22:10:16.213Z,3.87
2023-01-13T22:15:16.255Z,3.81
2023-01-13T22:20:16.208Z,3.75
2023-01-13T22:25:16.234Z,3.62
2023-01-13T22:30:16.206Z,3.5
2023-01-13T22:35:16.216Z,3.37
2023-01-13T22:40:16.231Z,3.31
2023-01-13T22:45:16.235Z,3.25
2023-01-13T22:50:16.218Z,3.37
2023-01-13T22:55:16.230Z,3.37
2023-01-13T23:00:16.189Z,3.18
2023-01-13T23:05:16.223Z,3
2023-01-13T23:10:16.202Z,2.87
2023-01-13T23:15:16.175Z,2.75
2023-01-13T23:20:16.188Z,2.93
2023-01-13T23:25:16.181Z,3
2023-01-13T23:30:16.231Z,3
2023-01-13T23:35:16.218Z,2.93
2023-01-13T23:40:16.171Z,2.87
2023-01-13T23:45:16.177Z,3
2023-01-13T23:50:16.215Z,3.06
2023-01-13T23:55:16.183Z,3
